sensor_id;sensor_type;location;lat;lon;timestamp;P1;durP1;ratioP1;P2;durP2;ratioP2
21521;SDS011;10922;45.572;10.002;2022-12-07T00:01:27;8.77;;;6.72;;
21521;SDS011;10922;45.572;10.002;2022-12-07T00:03:55;7.72;;;6.50;;
21521;SDS011;10922;45.572;10.002;2022-12-07T00:06:25;7.20;;;6.45;;
21521;SDS011;10922;45.572;10.002;2022-12-07T00:08:51;7.50;;;6.38;;
21521;SDS011;10922;45.572;10.002;2022-12-07T00:11:18;8.33;;;6.10;;
21521;SDS011;10922;45.572;10.002;2022-12-07T00:13:45;7.38;;;6.20;;
21521;SDS011;10922;45.572;10.002;2022-12-07T00:16:16;7.05;;;6.15;;
21521;SDS011;10922;45.572;10.002;2022-12-07T00:18:43;7.55;;;5.85;;
21521;SDS011;10922;45.572;10.002;2022-12-07T00:21:11;6.57;;;5.80;;
21521;SDS011;10922;45.572;10.002;2022-12-07T00:23:40;5.85;;;5.10;;
21521;SDS011;10922;45.572;10.002;2022-12-07T00:26:09;7.38;;;5.57;;
21521;SDS011;10922;45.572;10.002;2022-12-07T00:28:36;6.45;;;5.40;;
21521;SDS011;10922;45.572;10.002;2022-12-07T00:31:06;5.43;;;4.93;;
21521;SDS011;10922;45.572;10.002;2022-12-07T00:33:34;5.97;;;4.83;;
21521;SDS011;10922;45.572;10.002;2022-12-07T00:36:00;5.40;;;4.90;;
21521;SDS011;10922;45.572;10.002;2022-12-07T00:38:29;7.53;;;5.00;;
21521;SDS011;10922;45.572;10.002;2022-12-07T00:40:59;5.55;;;4.60;;
21521;SDS011;10922;45.572;10.002;2022-12-07T00:43:27;6.75;;;5.40;;
21521;SDS011;10922;45.572;10.002;2022-12-07T00:45:53;6.18;;;5.00;;
21521;SDS011;10922;45.572;10.002;2022-12-07T00:48:20;7.63;;;5.35;;
21521;SDS011;10922;45.572;10.002;2022-12-07T00:50:46;5.53;;;5.03;;
21521;SDS011;10922;45.572;10.002;2022-12-07T00:53:12;6.00;;;5.40;;
21521;SDS011;10922;45.572;10.002;2022-12-07T00:55:39;6.18;;;5.30;;
21521;SDS011;10922;45.572;10.002;2022-12-07T00:58:04;6.50;;;5.65;;
21521;SDS011;10922;45.572;10.002;2022-12-07T01:00:30;5.60;;;5.00;;
21521;SDS011;10922;45.572;10.002;2022-12-07T01:02:56;5.60;;;4.90;;
21521;SDS011;10922;45.572;10.002;2022-12-07T01:05:22;5.82;;;4.88;;
21521;SDS011;10922;45.572;10.002;2022-12-07T01:07:48;5.40;;;4.90;;
21521;SDS011;10922;45.572;10.002;2022-12-07T01:10:14;5.27;;;4.77;;
21521;SDS011;10922;45.572;10.002;2022-12-07T01:12:40;6.18;;;4.85;;
21521;SDS011;10922;45.572;10.002;2022-12-07T01:15:06;6.65;;;4.60;;
21521;SDS011;10922;45.572;10.002;2022-12-07T01:17:32;5.43;;;4.70;;
21521;SDS011;10922;45.572;10.002;2022-12-07T01:19:58;5.50;;;4.70;;
21521;SDS011;10922;45.572;10.002;2022-12-07T01:22:24;5.93;;;4.65;;
21521;SDS011;10922;45.572;10.002;2022-12-07T01:24:49;5.70;;;4.83;;
21521;SDS011;10922;45.572;10.002;2022-12-07T01:27:15;6.27;;;4.33;;
21521;SDS011;10922;45.572;10.002;2022-12-07T01:29:41;5.07;;;4.28;;
21521;SDS011;10922;45.572;10.002;2022-12-07T01:32:07;6.77;;;4.50;;
21521;SDS011;10922;45.572;10.002;2022-12-07T01:34:32;4.68;;;4.25;;
21521;SDS011;10922;45.572;10.002;2022-12-07T01:36:58;5.82;;;4.65;;
21521;SDS011;10922;45.572;10.002;2022-12-07T01:39:24;6.70;;;5.00;;
21521;SDS011;10922;45.572;10.002;2022-12-07T01:41:50;5.60;;;4.95;;
21521;SDS011;10922;45.572;10.002;2022-12-07T01:44:23;5.95;;;4.93;;
21521;SDS011;10922;45.572;10.002;2022-12-07T01:46:50;5.75;;;5.05;;
21521;SDS011;10922;45.572;10.002;2022-12-07T01:52:01;6.72;;;5.22;;
21521;SDS011;10922;45.572;10.002;2022-12-07T01:54:45;5.63;;;4.80;;
21521;SDS011;10922;45.572;10.002;2022-12-07T01:57:12;5.78;;;4.80;;
21521;SDS011;10922;45.572;10.002;2022-12-07T01:59:40;5.93;;;4.82;;
21521;SDS011;10922;45.572;10.002;2022-12-07T02:02:08;4.93;;;4.43;;
21521;SDS011;10922;45.572;10.002;2022-12-07T02:04:44;4.32;;;3.92;;
21521;SDS011;10922;45.572;10.002;2022-12-07T02:07:10;5.38;;;4.22;;
21521;SDS011;10922;45.572;10.002;2022-12-07T02:09:36;4.90;;;4.40;;
21521;SDS011;10922;45.572;10.002;2022-12-07T02:12:02;5.90;;;5.05;;
21521;SDS011;10922;45.572;10.002;2022-12-07T02:14:29;5.30;;;4.72;;
21521;SDS011;10922;45.572;10.002;2022-12-07T02:16:59;6.30;;;4.63;;
21521;SDS011;10922;45.572;10.002;2022-12-07T02:19:50;5.55;;;4.72;;
21521;SDS011;10922;45.572;10.002;2022-12-07T02:22:40;7.30;;;4.80;;
21521;SDS011;10922;45.572;10.002;2022-12-07T02:28:35;4.82;;;4.30;;
21521;SDS011;10922;45.572;10.002;2022-12-07T02:31:14;4.63;;;3.78;;
21521;SDS011;10922;45.572;10.002;2022-12-07T02:33:49;4.30;;;3.75;;
21521;SDS011;10922;45.572;10.002;2022-12-07T02:36:27;4.60;;;3.88;;
21521;SDS011;10922;45.572;10.002;2022-12-07T02:39:01;4.38;;;3.88;;
21521;SDS011;10922;45.572;10.002;2022-12-07T02:41:48;4.45;;;3.83;;
21521;SDS011;10922;45.572;10.002;2022-12-07T02:44:21;4.30;;;3.90;;
21521;SDS011;10922;45.572;10.002;2022-12-07T02:46:52;4.13;;;3.70;;
21521;SDS011;10922;45.572;10.002;2022-12-07T02:49:21;4.87;;;3.60;;
21521;SDS011;10922;45.572;10.002;2022-12-07T02:51:49;4.77;;;3.57;;
21521;SDS011;10922;45.572;10.002;2022-12-07T02:54:17;3.97;;;3.60;;
21521;SDS011;10922;45.572;10.002;2022-12-07T03:02:31;4.50;;;3.58;;
21521;SDS011;10922;45.572;10.002;2022-12-07T03:13:20;5.88;;;3.83;;
21521;SDS011;10922;45.572;10.002;2022-12-07T03:15:53;4.07;;;3.70;;
21521;SDS011;10922;45.572;10.002;2022-12-07T03:19:27;4.35;;;3.75;;
21521;SDS011;10922;45.572;10.002;2022-12-07T03:21:34;3.60;;;3.30;;
21521;SDS011;10922;45.572;10.002;2022-12-07T03:24:05;4.28;;;3.70;;
21521;SDS011;10922;45.572;10.002;2022-12-07T03:26:38;5.85;;;3.67;;
21521;SDS011;10922;45.572;10.002;2022-12-07T03:29:11;4.20;;;3.80;;
21521;SDS011;10922;45.572;10.002;2022-12-07T03:31:58;3.83;;;3.45;;
21521;SDS011;10922;45.572;10.002;2022-12-07T03:34:36;4.10;;;3.70;;
21521;SDS011;10922;45.572;10.002;2022-12-07T03:37:14;4.78;;;3.80;;
21521;SDS011;10922;45.572;10.002;2022-12-07T03:39:53;4.93;;;3.88;;
21521;SDS011;10922;45.572;10.002;2022-12-07T03:42:26;4.65;;;3.85;;
21521;SDS011;10922;45.572;10.002;2022-12-07T03:44:53;3.57;;;2.90;;
21521;SDS011;10922;45.572;10.002;2022-12-07T03:50:13;3.20;;;2.90;;
21521;SDS011;10922;45.572;10.002;2022-12-07T03:52:54;3.90;;;2.90;;
21521;SDS011;10922;45.572;10.002;2022-12-07T03:55:27;3.60;;;2.75;;
21521;SDS011;10922;45.572;10.002;2022-12-07T03:58:07;3.05;;;2.80;;
21521;SDS011;10922;45.572;10.002;2022-12-07T04:00:37;3.30;;;3.00;;
21521;SDS011;10922;45.572;10.002;2022-12-07T04:03:03;3.22;;;2.90;;
21521;SDS011;10922;45.572;10.002;2022-12-07T04:05:29;3.47;;;2.67;;
21521;SDS011;10922;45.572;10.002;2022-12-07T04:07:55;2.78;;;2.58;;
21521;SDS011;10922;45.572;10.002;2022-12-07T04:10:21;3.30;;;2.80;;
21521;SDS011;10922;45.572;10.002;2022-12-07T04:12:46;3.80;;;2.70;;
21521;SDS011;10922;45.572;10.002;2022-12-07T04:15:12;3.72;;;2.92;;
21521;SDS011;10922;45.572;10.002;2022-12-07T04:17:37;3.77;;;2.90;;
21521;SDS011;10922;45.572;10.002;2022-12-07T04:20:04;3.33;;;2.90;;
21521;SDS011;10922;45.572;10.002;2022-12-07T04:22:30;4.07;;;2.70;;
21521;SDS011;10922;45.572;10.002;2022-12-07T04:24:56;3.53;;;2.80;;
21521;SDS011;10922;45.572;10.002;2022-12-07T04:27:22;2.88;;;2.67;;
21521;SDS011;10922;45.572;10.002;2022-12-07T04:29:47;3.27;;;2.93;;
21521;SDS011;10922;45.572;10.002;2022-12-07T04:32:13;4.43;;;3.10;;
21521;SDS011;10922;45.572;10.002;2022-12-07T04:34:38;2.80;;;2.60;;
21521;SDS011;10922;45.572;10.002;2022-12-07T04:37:04;3.10;;;2.80;;
21521;SDS011;10922;45.572;10.002;2022-12-07T04:39:31;3.65;;;2.85;;
21521;SDS011;10922;45.572;10.002;2022-12-07T04:41:58;3.03;;;2.78;;
21521;SDS011;10922;45.572;10.002;2022-12-07T04:44:25;3.25;;;2.58;;
21521;SDS011;10922;45.572;10.002;2022-12-07T04:46:52;3.03;;;2.57;;
21521;SDS011;10922;45.572;10.002;2022-12-07T04:49:18;2.70;;;2.50;;
21521;SDS011;10922;45.572;10.002;2022-12-07T04:51:45;2.60;;;2.40;;
21521;SDS011;10922;45.572;10.002;2022-12-07T04:54:12;2.90;;;2.60;;
21521;SDS011;10922;45.572;10.002;2022-12-07T04:56:39;3.22;;;2.65;;
21521;SDS011;10922;45.572;10.002;2022-12-07T04:59:05;4.20;;;2.20;;
21521;SDS011;10922;45.572;10.002;2022-12-07T05:01:32;2.72;;;2.53;;
21521;SDS011;10922;45.572;10.002;2022-12-07T05:03:57;2.63;;;2.42;;
21521;SDS011;10922;45.572;10.002;2022-12-07T05:06:23;4.27;;;2.60;;
21521;SDS011;10922;45.572;10.002;2022-12-07T05:08:49;3.08;;;2.70;;
21521;SDS011;10922;45.572;10.002;2022-12-07T05:11:15;4.07;;;2.85;;
21521;SDS011;10922;45.572;10.002;2022-12-07T05:14:00;3.00;;;2.70;;
21521;SDS011;10922;45.572;10.002;2022-12-07T05:16:26;2.97;;;2.67;;
21521;SDS011;10922;45.572;10.002;2022-12-07T05:18:52;4.80;;;2.70;;
21521;SDS011;10922;45.572;10.002;2022-12-07T05:21:17;5.75;;;2.85;;
21521;SDS011;10922;45.572;10.002;2022-12-07T05:23:43;3.60;;;2.95;;
21521;SDS011;10922;45.572;10.002;2022-12-07T05:26:09;5.57;;;4.23;;
21521;SDS011;10922;45.572;10.002;2022-12-07T05:28:34;4.27;;;3.87;;
21521;SDS011;10922;45.572;10.002;2022-12-07T05:31:00;3.00;;;2.80;;
21521;SDS011;10922;45.572;10.002;2022-12-07T05:33:26;3.13;;;2.83;;
21521;SDS011;10922;45.572;10.002;2022-12-07T05:35:52;3.03;;;2.67;;
21521;SDS011;10922;45.572;10.002;2022-12-07T05:38:17;3.55;;;2.75;;
21521;SDS011;10922;45.572;10.002;2022-12-07T05:40:43;3.07;;;2.77;;
21521;SDS011;10922;45.572;10.002;2022-12-07T05:43:09;4.32;;;3.10;;
21521;SDS011;10922;45.572;10.002;2022-12-07T05:45:35;3.30;;;3.00;;
21521;SDS011;10922;45.572;10.002;2022-12-07T05:48:00;3.30;;;3.00;;
21521;SDS011;10922;45.572;10.002;2022-12-07T05:50:26;2.97;;;2.55;;
21521;SDS011;10922;45.572;10.002;2022-12-07T05:52:53;3.60;;;2.33;;
21521;SDS011;10922;45.572;10.002;2022-12-07T05:55:19;2.50;;;2.30;;
21521;SDS011;10922;45.572;10.002;2022-12-07T05:57:45;3.10;;;2.53;;
21521;SDS011;10922;45.572;10.002;2022-12-07T06:00:30;4.03;;;2.47;;
21521;SDS011;10922;45.572;10.002;2022-12-07T06:02:56;3.05;;;2.40;;
21521;SDS011;10922;45.572;10.002;2022-12-07T06:05:22;4.22;;;3.10;;
21521;SDS011;10922;45.572;10.002;2022-12-07T06:07:48;4.78;;;3.30;;
21521;SDS011;10922;45.572;10.002;2022-12-07T06:10:14;4.63;;;3.90;;
21521;SDS011;10922;45.572;10.002;2022-12-07T06:12:39;6.20;;;4.20;;
21521;SDS011;10922;45.572;10.002;2022-12-07T06:15:07;4.38;;;3.97;;
21521;SDS011;10922;45.572;10.002;2022-12-07T06:17:34;5.35;;;4.10;;
21521;SDS011;10922;45.572;10.002;2022-12-07T06:20:00;4.72;;;4.30;;
21521;SDS011;10922;45.572;10.002;2022-12-07T06:22:26;6.95;;;4.10;;
21521;SDS011;10922;45.572;10.002;2022-12-07T06:24:51;8.23;;;4.40;;
21521;SDS011;10922;45.572;10.002;2022-12-07T06:27:17;4.90;;;3.97;;
21521;SDS011;10922;45.572;10.002;2022-12-07T06:29:43;7.00;;;4.53;;
21521;SDS011;10922;45.572;10.002;2022-12-07T06:32:08;5.80;;;4.63;;
21521;SDS011;10922;45.572;10.002;2022-12-07T06:34:34;8.80;;;4.95;;
21521;SDS011;10922;45.572;10.002;2022-12-07T06:37:00;10.90;;;4.77;;
21521;SDS011;10922;45.572;10.002;2022-12-07T06:39:26;7.38;;;5.03;;
21521;SDS011;10922;45.572;10.002;2022-12-07T06:41:53;7.95;;;5.22;;
21521;SDS011;10922;45.572;10.002;2022-12-07T06:44:20;6.63;;;4.88;;
21521;SDS011;10922;45.572;10.002;2022-12-07T06:46:46;15.88;;;8.05;;
21521;SDS011;10922;45.572;10.002;2022-12-07T06:49:12;7.97;;;4.50;;
21521;SDS011;10922;45.572;10.002;2022-12-07T06:51:38;8.02;;;4.00;;
21521;SDS011;10922;45.572;10.002;2022-12-07T06:54:09;6.93;;;3.70;;
21521;SDS011;10922;45.572;10.002;2022-12-07T06:56:36;7.82;;;3.85;;
21521;SDS011;10922;45.572;10.002;2022-12-07T06:59:02;7.33;;;3.83;;
21521;SDS011;10922;45.572;10.002;2022-12-07T07:01:28;8.63;;;3.63;;
21521;SDS011;10922;45.572;10.002;2022-12-07T07:03:54;6.32;;;3.30;;
21521;SDS011;10922;45.572;10.002;2022-12-07T07:06:19;6.23;;;3.50;;
21521;SDS011;10922;45.572;10.002;2022-12-07T07:08:45;8.73;;;4.70;;
21521;SDS011;10922;45.572;10.002;2022-12-07T07:11:11;4.43;;;3.40;;
21521;SDS011;10922;45.572;10.002;2022-12-07T07:13:37;4.78;;;3.25;;
21521;SDS011;10922;45.572;10.002;2022-12-07T07:16:03;3.37;;;3.07;;
21521;SDS011;10922;45.572;10.002;2022-12-07T07:18:29;6.97;;;3.22;;
21521;SDS011;10922;45.572;10.002;2022-12-07T07:20:55;5.10;;;3.20;;
21521;SDS011;10922;45.572;10.002;2022-12-07T07:23:20;4.07;;;3.25;;
21521;SDS011;10922;45.572;10.002;2022-12-07T07:25:46;5.78;;;3.47;;
21521;SDS011;10922;45.572;10.002;2022-12-07T07:28:13;7.97;;;3.72;;
21521;SDS011;10922;45.572;10.002;2022-12-07T07:30:39;7.97;;;3.65;;
21521;SDS011;10922;45.572;10.002;2022-12-07T07:33:05;5.83;;;3.40;;
21521;SDS011;10922;45.572;10.002;2022-12-07T07:35:32;6.18;;;3.95;;
21521;SDS011;10922;45.572;10.002;2022-12-07T07:37:59;11.60;;;5.68;;
21521;SDS011;10922;45.572;10.002;2022-12-07T07:40:25;4.88;;;3.38;;
21521;SDS011;10922;45.572;10.002;2022-12-07T07:42:53;6.85;;;3.55;;
21521;SDS011;10922;45.572;10.002;2022-12-07T07:45:20;5.57;;;3.47;;
21521;SDS011;10922;45.572;10.002;2022-12-07T07:47:46;7.32;;;3.60;;
21521;SDS011;10922;45.572;10.002;2022-12-07T07:50:12;4.43;;;3.40;;
21521;SDS011;10922;45.572;10.002;2022-12-07T07:52:38;7.10;;;3.20;;
21521;SDS011;10922;45.572;10.002;2022-12-07T07:55:03;5.30;;;3.30;;
21521;SDS011;10922;45.572;10.002;2022-12-07T07:57:29;6.78;;;3.30;;
21521;SDS011;10922;45.572;10.002;2022-12-07T07:59:55;12.18;;;3.63;;
21521;SDS011;10922;45.572;10.002;2022-12-07T08:02:21;5.47;;;3.47;;
21521;SDS011;10922;45.572;10.002;2022-12-07T08:04:47;6.60;;;3.47;;
21521;SDS011;10922;45.572;10.002;2022-12-07T08:07:13;3.92;;;3.10;;
21521;SDS011;10922;45.572;10.002;2022-12-07T08:09:40;3.90;;;2.88;;
21521;SDS011;10922;45.572;10.002;2022-12-07T08:12:05;4.87;;;2.90;;
21521;SDS011;10922;45.572;10.002;2022-12-07T08:14:32;5.70;;;3.20;;
21521;SDS011;10922;45.572;10.002;2022-12-07T08:16:58;5.80;;;3.30;;
21521;SDS011;10922;45.572;10.002;2022-12-07T08:19:24;3.72;;;2.80;;
21521;SDS011;10922;45.572;10.002;2022-12-07T08:21:50;5.28;;;3.08;;
21521;SDS011;10922;45.572;10.002;2022-12-07T08:24:16;5.15;;;3.40;;
21521;SDS011;10922;45.572;10.002;2022-12-07T08:26:42;8.97;;;3.37;;
21521;SDS011;10922;45.572;10.002;2022-12-07T08:29:08;5.53;;;3.75;;
21521;SDS011;10922;45.572;10.002;2022-12-07T08:31:33;6.37;;;3.40;;
21521;SDS011;10922;45.572;10.002;2022-12-07T08:33:59;7.05;;;3.15;;
21521;SDS011;10922;45.572;10.002;2022-12-07T08:36:25;9.83;;;3.40;;
21521;SDS011;10922;45.572;10.002;2022-12-07T08:38:50;3.20;;;2.77;;
21521;SDS011;10922;45.572;10.002;2022-12-07T08:41:16;4.60;;;2.95;;
21521;SDS011;10922;45.572;10.002;2022-12-07T08:43:42;3.83;;;3.10;;
21521;SDS011;10922;45.572;10.002;2022-12-07T08:46:12;4.70;;;3.20;;
21521;SDS011;10922;45.572;10.002;2022-12-07T08:48:50;16.17;;;11.48;;
21521;SDS011;10922;45.572;10.002;2022-12-07T08:51:21;21.08;;;15.80;;
21521;SDS011;10922;45.572;10.002;2022-12-07T08:53:48;25.08;;;16.98;;
21521;SDS011;10922;45.572;10.002;2022-12-07T08:56:15;28.03;;;17.93;;
21521;SDS011;10922;45.572;10.002;2022-12-07T08:58:41;23.38;;;16.98;;
21521;SDS011;10922;45.572;10.002;2022-12-07T09:01:08;25.48;;;16.80;;
21521;SDS011;10922;45.572;10.002;2022-12-07T09:03:33;28.83;;;17.27;;
21521;SDS011;10922;45.572;10.002;2022-12-07T09:05:59;21.52;;;15.25;;
21521;SDS011;10922;45.572;10.002;2022-12-07T09:08:26;22.03;;;14.60;;
21521;SDS011;10922;45.572;10.002;2022-12-07T09:10:57;22.67;;;15.93;;
21521;SDS011;10922;45.572;10.002;2022-12-07T09:13:23;16.33;;;12.82;;
21521;SDS011;10922;45.572;10.002;2022-12-07T09:15:49;17.05;;;13.02;;
21521;SDS011;10922;45.572;10.002;2022-12-07T09:18:14;21.37;;;14.40;;
21521;SDS011;10922;45.572;10.002;2022-12-07T09:20:40;17.87;;;12.93;;
21521;SDS011;10922;45.572;10.002;2022-12-07T09:23:06;17.08;;;11.95;;
21521;SDS011;10922;45.572;10.002;2022-12-07T09:25:32;18.30;;;13.60;;
21521;SDS011;10922;45.572;10.002;2022-12-07T09:27:59;16.83;;;13.35;;
21521;SDS011;10922;45.572;10.002;2022-12-07T09:30:26;19.65;;;14.15;;
21521;SDS011;10922;45.572;10.002;2022-12-07T09:32:53;19.65;;;14.40;;
21521;SDS011;10922;45.572;10.002;2022-12-07T09:35:20;21.73;;;14.43;;
21521;SDS011;10922;45.572;10.002;2022-12-07T09:37:46;21.13;;;13.90;;
21521;SDS011;10922;45.572;10.002;2022-12-07T09:40:11;20.80;;;14.17;;
21521;SDS011;10922;45.572;10.002;2022-12-07T09:42:39;20.65;;;14.68;;
21521;SDS011;10922;45.572;10.002;2022-12-07T09:45:19;18.02;;;14.10;;
21521;SDS011;10922;45.572;10.002;2022-12-07T09:47:48;19.80;;;14.65;;
21521;SDS011;10922;45.572;10.002;2022-12-07T09:50:15;19.67;;;14.25;;
21521;SDS011;10922;45.572;10.002;2022-12-07T09:52:45;19.27;;;14.48;;
21521;SDS011;10922;45.572;10.002;2022-12-07T09:55:14;19.08;;;14.27;;
21521;SDS011;10922;45.572;10.002;2022-12-07T09:57:43;20.40;;;14.20;;
21521;SDS011;10922;45.572;10.002;2022-12-07T10:00:11;15.25;;;12.65;;
21521;SDS011;10922;45.572;10.002;2022-12-07T10:05:12;16.10;;;12.15;;
21521;SDS011;10922;45.572;10.002;2022-12-07T10:07:40;17.00;;;12.57;;
21521;SDS011;10922;45.572;10.002;2022-12-07T10:10:09;15.38;;;12.48;;
21521;SDS011;10922;45.572;10.002;2022-12-07T10:12:54;15.07;;;12.32;;
21521;SDS011;10922;45.572;10.002;2022-12-07T10:15:40;18.00;;;13.30;;
21521;SDS011;10922;45.572;10.002;2022-12-07T10:18:14;17.77;;;13.02;;
21521;SDS011;10922;45.572;10.002;2022-12-07T10:20:45;18.15;;;14.00;;
21521;SDS011;10922;45.572;10.002;2022-12-07T10:23:16;18.70;;;13.13;;
21521;SDS011;10922;45.572;10.002;2022-12-07T10:25:43;19.25;;;12.23;;
21521;SDS011;10922;45.572;10.002;2022-12-07T10:28:13;18.00;;;12.80;;
21521;SDS011;10922;45.572;10.002;2022-12-07T10:33:29;21.52;;;12.05;;
21521;SDS011;10922;45.572;10.002;2022-12-07T10:35:57;19.75;;;13.10;;
21521;SDS011;10922;45.572;10.002;2022-12-07T10:38:24;15.68;;;11.27;;
21521;SDS011;10922;45.572;10.002;2022-12-07T10:41:07;17.63;;;12.25;;
21521;SDS011;10922;45.572;10.002;2022-12-07T10:43:34;16.03;;;11.20;;
21521;SDS011;10922;45.572;10.002;2022-12-07T10:52:13;16.60;;;11.05;;
21521;SDS011;10922;45.572;10.002;2022-12-07T11:00:45;19.52;;;12.23;;
21521;SDS011;10922;45.572;10.002;2022-12-07T11:21:58;19.73;;;15.43;;
21521;SDS011;10922;45.572;10.002;2022-12-07T11:35:40;28.58;;;21.65;;
21521;SDS011;10922;45.572;10.002;2022-12-07T11:38:37;27.48;;;20.80;;
21521;SDS011;10922;45.572;10.002;2022-12-07T11:41:20;30.27;;;22.40;;
21521;SDS011;10922;45.572;10.002;2022-12-07T11:44:27;31.52;;;23.48;;
21521;SDS011;10922;45.572;10.002;2022-12-07T11:52:42;29.52;;;21.40;;
21521;SDS011;10922;45.572;10.002;2022-12-07T11:55:24;26.30;;;20.43;;
21521;SDS011;10922;45.572;10.002;2022-12-07T12:01:15;26.40;;;18.60;;
21521;SDS011;10922;45.572;10.002;2022-12-07T12:03:48;33.45;;;18.85;;
21521;SDS011;10922;45.572;10.002;2022-12-07T12:06:16;23.75;;;18.73;;
21521;SDS011;10922;45.572;10.002;2022-12-07T12:08:43;25.43;;;18.47;;
21521;SDS011;10922;45.572;10.002;2022-12-07T12:22:21;21.85;;;15.88;;
21521;SDS011;10922;45.572;10.002;2022-12-07T12:24:55;19.70;;;14.80;;
21521;SDS011;10922;45.572;10.002;2022-12-07T12:27:26;18.77;;;14.95;;
21521;SDS011;10922;45.572;10.002;2022-12-07T12:29:56;16.83;;;13.40;;
21521;SDS011;10922;45.572;10.002;2022-12-07T12:32:34;17.00;;;12.83;;
21521;SDS011;10922;45.572;10.002;2022-12-07T12:37:53;17.65;;;13.23;;
21521;SDS011;10922;45.572;10.002;2022-12-07T12:42:49;15.32;;;11.88;;
21521;SDS011;10922;45.572;10.002;2022-12-07T12:45:24;14.48;;;11.80;;
21521;SDS011;10922;45.572;10.002;2022-12-07T12:50:28;14.87;;;12.63;;
21521;SDS011;10922;45.572;10.002;2022-12-07T12:53:02;13.65;;;12.00;;
21521;SDS011;10922;45.572;10.002;2022-12-07T13:00:45;17.60;;;13.82;;
21521;SDS011;10922;45.572;10.002;2022-12-07T13:03:26;18.67;;;15.35;;
21521;SDS011;10922;45.572;10.002;2022-12-07T13:08:42;17.25;;;14.05;;
21521;SDS011;10922;45.572;10.002;2022-12-07T13:17:07;20.00;;;16.60;;
21521;SDS011;10922;45.572;10.002;2022-12-07T13:27:51;24.90;;;20.03;;
21521;SDS011;10922;45.572;10.002;2022-12-07T13:30:23;24.50;;;20.25;;
21521;SDS011;10922;45.572;10.002;2022-12-07T13:32:56;25.33;;;20.57;;
21521;SDS011;10922;45.572;10.002;2022-12-07T13:35:34;23.65;;;19.98;;
21521;SDS011;10922;45.572;10.002;2022-12-07T13:38:05;26.08;;;19.85;;
21521;SDS011;10922;45.572;10.002;2022-12-07T13:40:43;23.13;;;19.67;;
21521;SDS011;10922;45.572;10.002;2022-12-07T13:43:45;23.63;;;20.63;;
21521;SDS011;10922;45.572;10.002;2022-12-07T13:46:14;24.88;;;22.00;;
21521;SDS011;10922;45.572;10.002;2022-12-07T13:48:49;24.02;;;21.42;;
21521;SDS011;10922;45.572;10.002;2022-12-07T13:51:23;24.67;;;21.55;;
21521;SDS011;10922;45.572;10.002;2022-12-07T13:53:54;24.95;;;21.83;;
21521;SDS011;10922;45.572;10.002;2022-12-07T13:56:28;25.85;;;22.50;;
21521;SDS011;10922;45.572;10.002;2022-12-07T13:58:58;26.58;;;23.10;;
21521;SDS011;10922;45.572;10.002;2022-12-07T14:01:25;28.10;;;23.30;;
21521;SDS011;10922;45.572;10.002;2022-12-07T14:03:51;28.30;;;23.00;;
21521;SDS011;10922;45.572;10.002;2022-12-07T14:08:50;28.02;;;23.05;;
21521;SDS011;10922;45.572;10.002;2022-12-07T14:11:31;50.00;;;32.35;;
21521;SDS011;10922;45.572;10.002;2022-12-07T14:14:00;32.03;;;25.75;;
21521;SDS011;10922;45.572;10.002;2022-12-07T14:16:31;33.30;;;24.70;;
21521;SDS011;10922;45.572;10.002;2022-12-07T14:19:01;28.60;;;22.98;;
21521;SDS011;10922;45.572;10.002;2022-12-07T14:21:30;31.63;;;24.25;;
21521;SDS011;10922;45.572;10.002;2022-12-07T14:24:17;31.55;;;23.90;;
21521;SDS011;10922;45.572;10.002;2022-12-07T14:26:45;34.38;;;26.08;;
21521;SDS011;10922;45.572;10.002;2022-12-07T14:29:21;34.42;;;26.13;;
21521;SDS011;10922;45.572;10.002;2022-12-07T14:31:51;35.07;;;26.20;;
21521;SDS011;10922;45.572;10.002;2022-12-07T14:34:19;30.63;;;25.10;;
21521;SDS011;10922;45.572;10.002;2022-12-07T14:36:48;29.37;;;24.47;;
21521;SDS011;10922;45.572;10.002;2022-12-07T14:39:14;30.25;;;23.58;;
21521;SDS011;10922;45.572;10.002;2022-12-07T14:41:40;30.75;;;24.08;;
21521;SDS011;10922;45.572;10.002;2022-12-07T14:44:21;32.08;;;26.50;;
21521;SDS011;10922;45.572;10.002;2022-12-07T14:46:48;34.42;;;26.40;;
21521;SDS011;10922;45.572;10.002;2022-12-07T14:49:14;32.92;;;28.05;;
21521;SDS011;10922;45.572;10.002;2022-12-07T14:51:40;40.83;;;32.00;;
21521;SDS011;10922;45.572;10.002;2022-12-07T14:54:12;39.20;;;30.15;;
21521;SDS011;10922;45.572;10.002;2022-12-07T14:56:44;40.93;;;30.87;;
21521;SDS011;10922;45.572;10.002;2022-12-07T14:59:13;42.13;;;32.20;;
21521;SDS011;10922;45.572;10.002;2022-12-07T15:01:40;47.63;;;32.40;;
21521;SDS011;10922;45.572;10.002;2022-12-07T15:04:05;43.58;;;31.30;;
21521;SDS011;10922;45.572;10.002;2022-12-07T15:06:31;32.67;;;25.90;;
21521;SDS011;10922;45.572;10.002;2022-12-07T15:08:57;39.55;;;29.60;;
21521;SDS011;10922;45.572;10.002;2022-12-07T15:11:22;37.92;;;29.80;;
21521;SDS011;10922;45.572;10.002;2022-12-07T15:13:48;32.15;;;26.50;;
21521;SDS011;10922;45.572;10.002;2022-12-07T15:16:32;48.67;;;34.88;;
21521;SDS011;10922;45.572;10.002;2022-12-07T15:18:59;49.95;;;35.63;;
21521;SDS011;10922;45.572;10.002;2022-12-07T15:21:24;54.13;;;38.50;;
21521;SDS011;10922;45.572;10.002;2022-12-07T15:23:50;61.20;;;39.47;;
21521;SDS011;10922;45.572;10.002;2022-12-07T15:26:16;59.85;;;40.67;;
21521;SDS011;10922;45.572;10.002;2022-12-07T15:28:42;60.30;;;41.38;;
21521;SDS011;10922;45.572;10.002;2022-12-07T15:31:15;64.00;;;43.30;;
21521;SDS011;10922;45.572;10.002;2022-12-07T15:33:42;62.65;;;42.75;;
21521;SDS011;10922;45.572;10.002;2022-12-07T15:36:09;65.15;;;44.20;;
21521;SDS011;10922;45.572;10.002;2022-12-07T15:38:48;66.80;;;44.30;;
21521;SDS011;10922;45.572;10.002;2022-12-07T15:41:14;66.73;;;46.33;;
21521;SDS011;10922;45.572;10.002;2022-12-07T15:43:40;63.70;;;46.30;;
21521;SDS011;10922;45.572;10.002;2022-12-07T15:46:31;64.28;;;44.45;;
21521;SDS011;10922;45.572;10.002;2022-12-07T15:48:58;64.30;;;44.42;;
21521;SDS011;10922;45.572;10.002;2022-12-07T15:51:25;57.97;;;42.50;;
21521;SDS011;10922;45.572;10.002;2022-12-07T15:53:51;58.03;;;41.83;;
21521;SDS011;10922;45.572;10.002;2022-12-07T15:56:18;119.57;;;87.20;;
21521;SDS011;10922;45.572;10.002;2022-12-07T15:58:43;572.27;;;317.83;;
21521;SDS011;10922;45.572;10.002;2022-12-07T16:01:10;212.25;;;130.10;;
21521;SDS011;10922;45.572;10.002;2022-12-07T16:03:39;77.30;;;55.53;;
21521;SDS011;10922;45.572;10.002;2022-12-07T16:06:05;74.40;;;52.90;;
21521;SDS011;10922;45.572;10.002;2022-12-07T16:08:31;75.68;;;53.58;;
21521;SDS011;10922;45.572;10.002;2022-12-07T16:10:56;74.97;;;52.78;;
21521;SDS011;10922;45.572;10.002;2022-12-07T16:13:22;77.57;;;53.87;;
21521;SDS011;10922;45.572;10.002;2022-12-07T16:15:48;82.43;;;57.17;;
21521;SDS011;10922;45.572;10.002;2022-12-07T16:18:15;76.65;;;52.53;;
21521;SDS011;10922;45.572;10.002;2022-12-07T16:20:40;79.97;;;53.30;;
21521;SDS011;10922;45.572;10.002;2022-12-07T16:23:06;81.10;;;54.80;;
21521;SDS011;10922;45.572;10.002;2022-12-07T16:25:32;91.13;;;61.38;;
21521;SDS011;10922;45.572;10.002;2022-12-07T16:27:58;94.15;;;65.13;;
21521;SDS011;10922;45.572;10.002;2022-12-07T16:30:23;104.37;;;72.27;;
21521;SDS011;10922;45.572;10.002;2022-12-07T16:32:50;114.22;;;75.88;;
21521;SDS011;10922;45.572;10.002;2022-12-07T16:35:16;114.27;;;76.73;;
21521;SDS011;10922;45.572;10.002;2022-12-07T16:37:42;109.18;;;72.28;;